createdAt,value
2022-07-27T00:01:59.070Z,23.30
2022-07-27T00:05:00.904Z,23.20
2022-07-27T00:08:02.802Z,23.40
2022-07-27T00:11:05.059Z,23.20
2022-07-27T00:14:06.855Z,23.10
2022-07-27T00:17:08.760Z,23.20
2022-07-27T00:20:10.752Z,23.20
2022-07-27T00:23:12.727Z,23.10
2022-07-27T00:26:14.560Z,23.20
2022-07-27T00:29:16.428Z,23.10
2022-07-27T00:32:18.258Z,23.10
2022-07-27T00:35:20.187Z,23.20
2022-07-27T00:38:21.979Z,23.20
2022-07-27T00:41:23.765Z,23.30
2022-07-27T00:44:28.420Z,23.10
2022-07-27T00:47:30.252Z,23.10
2022-07-27T00:50:32.085Z,23.10
2022-07-27T00:53:34.190Z,23.20
2022-07-27T00:56:36.116Z,23.00
2022-07-27T00:59:38.080Z,23.00
2022-07-27T01:02:40.134Z,22.90
2022-07-27T01:05:48.389Z,23.10
2022-07-27T01:08:50.244Z,23.00
2022-07-27T01:11:52.247Z,23.00
2022-07-27T01:14:55.119Z,22.90
2022-07-27T01:17:56.974Z,22.90
2022-07-27T01:20:59.734Z,22.80
2022-07-27T01:24:02.038Z,22.90
2022-07-27T01:27:04.412Z,22.90
2022-07-27T01:30:06.555Z,22.90
2022-07-27T01:33:08.946Z,22.90
2022-07-27T01:36:10.819Z,22.90
2022-07-27T01:39:13.704Z,22.80
2022-07-27T01:42:15.906Z,22.80
2022-07-27T01:45:17.870Z,22.90
2022-07-27T01:48:19.698Z,22.90
2022-07-27T01:51:21.514Z,22.90
2022-07-27T01:54:23.339Z,22.80
2022-07-27T01:57:25.258Z,22.90
2022-07-27T02:00:27.149Z,22.80
2022-07-27T02:03:30.129Z,22.60
2022-07-27T02:06:31.899Z,22.80
2022-07-27T02:09:33.713Z,22.80
2022-07-27T02:12:35.594Z,22.70
2022-07-27T02:15:42.226Z,22.60
2022-07-27T02:18:46.111Z,22.50
2022-07-27T02:21:50.604Z,22.60
2022-07-27T02:24:52.574Z,22.50
2022-07-27T02:27:54.411Z,22.50
2022-07-27T02:30:56.320Z,22.60
2022-07-27T02:33:58.131Z,22.50
2022-07-27T02:36:59.976Z,22.40
2022-07-27T02:40:02.039Z,22.30
2022-07-27T02:43:03.859Z,22.40
2022-07-27T02:46:05.728Z,22.40
2022-07-27T02:49:10.706Z,22.40
2022-07-27T02:52:12.899Z,22.40
2022-07-27T02:55:14.696Z,22.40
2022-07-27T02:58:16.461Z,22.40
2022-07-27T03:01:18.322Z,22.40
2022-07-27T03:04:20.219Z,22.30
2022-07-27T03:07:22.062Z,22.40
2022-07-27T03:10:23.862Z,22.40
2022-07-27T03:13:25.637Z,22.40
2022-07-27T03:16:27.526Z,22.40
2022-07-27T03:19:30.469Z,22.30
2022-07-27T03:22:32.497Z,22.40
2022-07-27T03:25:34.429Z,22.40
2022-07-27T03:28:36.243Z,22.20
2022-07-27T03:31:38.063Z,22.30
2022-07-27T03:34:40.043Z,22.20
2022-07-27T03:37:41.898Z,22.20
2022-07-27T03:40:43.854Z,22.20
2022-07-27T03:43:45.684Z,22.10
2022-07-27T03:46:47.518Z,22.20
2022-07-27T03:49:49.403Z,22.30
2022-07-27T03:52:51.737Z,22.30
2022-07-27T03:55:53.627Z,22.10
2022-07-27T03:58:55.432Z,22.30
2022-07-27T04:01:57.259Z,22.20
2022-07-27T04:05:00.939Z,22.40
2022-07-27T04:08:03.034Z,22.20
2022-07-27T04:11:04.816Z,22.20
2022-07-27T04:14:09.983Z,22.10
2022-07-27T04:17:55.962Z,22.10
2022-07-27T04:20:36.515Z,22.10
2022-07-27T04:23:38.606Z,22.10
2022-07-27T04:26:40.489Z,22.30
2022-07-27T04:29:42.337Z,22.20
2022-07-27T04:32:44.114Z,22.10
2022-07-27T04:35:45.977Z,22.10
2022-07-27T04:38:47.841Z,22.10
2022-07-27T04:41:49.656Z,22.00
2022-07-27T04:44:51.503Z,22.00
2022-07-27T04:47:53.361Z,22.30
2022-07-27T04:50:55.201Z,22.00
2022-07-27T04:53:58.668Z,22.00
2022-07-27T04:57:00.855Z,22.10
2022-07-27T05:00:03.654Z,22.10
2022-07-27T05:03:05.642Z,22.00
2022-07-27T05:06:07.470Z,22.00
2022-07-27T05:09:09.528Z,22.10
2022-07-27T05:12:11.482Z,22.00
2022-07-27T05:15:13.269Z,21.90
2022-07-27T05:18:15.266Z,22.10
2022-07-27T05:21:17.155Z,22.20
2022-07-27T05:24:18.997Z,22.10
2022-07-27T05:27:21.137Z,22.10
2022-07-27T05:30:23.701Z,22.30
2022-07-27T05:33:25.570Z,22.50
2022-07-27T05:36:27.360Z,22.60
2022-07-27T05:39:29.281Z,22.70
2022-07-27T05:42:31.199Z,22.70
2022-07-27T05:45:33.134Z,22.90
2022-07-27T05:48:35.017Z,22.80
2022-07-27T05:51:36.838Z,23.00
2022-07-27T05:54:38.739Z,22.90
2022-07-27T05:57:40.948Z,23.20
2022-07-27T06:00:42.800Z,23.20
2022-07-27T06:03:44.710Z,23.40
2022-07-27T06:06:46.731Z,23.50
2022-07-27T06:09:48.586Z,23.60
2022-07-27T06:12:50.553Z,23.90
2022-07-27T06:15:52.319Z,24.20
2022-07-27T06:18:54.105Z,24.40
2022-07-27T06:21:55.921Z,24.50
2022-07-27T06:24:58.073Z,24.70
2022-07-27T06:27:59.900Z,24.90
2022-07-27T06:31:01.691Z,24.60
2022-07-27T06:34:03.828Z,24.50
2022-07-27T06:37:08.954Z,25.10
2022-07-27T06:40:12.467Z,25.50
2022-07-27T06:43:14.360Z,25.90
2022-07-27T06:46:16.325Z,26.20
2022-07-27T06:49:18.538Z,26.40
2022-07-27T06:52:20.731Z,26.10
2022-07-27T06:55:22.942Z,26.80
2022-07-27T06:58:24.768Z,26.30
2022-07-27T07:01:26.689Z,26.80
2022-07-27T07:04:28.840Z,26.60
2022-07-27T07:07:30.656Z,25.90
2022-07-27T07:10:32.525Z,25.20
2022-07-27T07:13:38.412Z,25.00
2022-07-27T07:16:42.053Z,24.60
2022-07-27T07:19:43.867Z,24.40
2022-07-27T07:22:45.695Z,24.20
2022-07-27T07:25:47.525Z,24.10
2022-07-27T07:28:49.372Z,24.20
2022-07-27T07:31:51.380Z,24.20
2022-07-27T07:34:53.300Z,24.40
2022-07-27T07:37:55.595Z,24.40
2022-07-27T07:40:57.888Z,24.40
2022-07-27T07:43:59.835Z,24.40
2022-07-27T07:47:01.921Z,24.40
2022-07-27T07:50:04.136Z,24.50
2022-07-27T07:53:06.030Z,24.60
2022-07-27T07:56:07.944Z,25.40
2022-07-27T07:59:10.207Z,25.50
2022-07-27T08:02:12.329Z,25.60
2022-07-27T08:05:14.512Z,26.50
2022-07-27T08:08:16.460Z,27.20
2022-07-27T08:11:18.427Z,27.90
2022-07-27T08:14:20.271Z,28.40
2022-07-27T08:17:22.146Z,28.80
2022-07-27T08:20:23.997Z,29.10
2022-07-27T08:23:25.976Z,28.80
2022-07-27T08:26:27.810Z,28.50
2022-07-27T08:29:35.990Z,28.50
2022-07-27T08:32:51.536Z,29.00
2022-07-27T08:35:53.522Z,28.50
2022-07-27T08:38:55.338Z,29.10
2022-07-27T08:41:58.271Z,29.00
2022-07-27T08:45:00.526Z,28.30
2022-07-27T08:48:02.704Z,27.40
2022-07-27T08:51:04.779Z,28.00
2022-07-27T08:54:06.809Z,27.10
2022-07-27T08:57:09.773Z,27.80
2022-07-27T09:00:11.802Z,28.50
2022-07-27T09:03:19.121Z,28.80
2022-07-27T09:06:40.476Z,29.10
2022-07-27T09:09:46.586Z,30.20
2022-07-27T09:12:48.444Z,30.50
2022-07-27T09:16:16.881Z,30.00
2022-07-27T09:19:16.860Z,30.00
2022-07-27T09:22:38.117Z,30.20
2022-07-27T09:26:02.179Z,30.10
2022-07-27T09:29:04.699Z,30.90
2022-07-27T09:32:16.162Z,30.30
2022-07-27T09:35:19.793Z,30.40
2022-07-27T09:38:22.689Z,30.40
2022-07-27T09:41:26.947Z,30.20
2022-07-27T09:44:34.811Z,31.30
2022-07-27T09:47:44.773Z,31.80
2022-07-27T09:51:01.340Z,31.50
2022-07-27T09:54:06.572Z,31.80
2022-07-27T09:57:08.436Z,31.40
2022-07-27T10:00:11.334Z,30.40
2022-07-27T10:03:13.243Z,30.60
2022-07-27T10:06:15.346Z,30.80
2022-07-27T10:09:18.276Z,30.40
2022-07-27T10:12:22.292Z,30.50
2022-07-27T10:15:25.830Z,31.20
2022-07-27T10:18:32.828Z,31.30
2022-07-27T10:21:37.200Z,30.90
2022-07-27T10:24:38.994Z,30.80
2022-07-27T10:27:40.898Z,30.40
2022-07-27T10:30:42.746Z,29.90
2022-07-27T10:33:45.926Z,30.40
2022-07-27T10:36:49.433Z,30.50
2022-07-27T10:39:52.011Z,30.20
2022-07-27T10:43:17.233Z,29.70
2022-07-27T10:46:20.014Z,29.90
2022-07-27T10:49:26.582Z,29.40
2022-07-27T11:03:30.416Z,29.30
2022-07-27T11:06:37.626Z,28.90
2022-07-27T11:10:06.569Z,28.80
2022-07-27T11:13:09.973Z,29.80
2022-07-27T11:16:28.005Z,29.40
2022-07-27T11:19:29.889Z,29.80
2022-07-27T11:23:09.093Z,29.70
2022-07-27T11:26:01.075Z,29.70
2022-07-27T11:29:02.938Z,29.60
2022-07-27T11:32:04.992Z,29.60
2022-07-27T11:35:19.766Z,29.70
2022-07-27T11:38:22.299Z,29.50
2022-07-27T11:41:47.993Z,29.60
2022-07-27T11:44:47.120Z,29.40
2022-07-27T11:47:56.559Z,29.50
2022-07-27T11:50:58.464Z,29.40
2022-07-27T11:54:04.803Z,29.10
2022-07-27T11:57:13.870Z,29.00
2022-07-27T12:00:15.890Z,29.20
2022-07-27T12:03:20.914Z,29.20
2022-07-27T12:06:22.812Z,29.40
2022-07-27T12:09:25.230Z,29.60
2022-07-27T12:12:28.021Z,29.60
2022-07-27T12:15:45.414Z,29.50
2022-07-27T12:18:48.049Z,29.30
2022-07-27T12:21:56.050Z,29.20
2022-07-27T12:24:58.528Z,29.60
2022-07-27T12:28:13.782Z,29.70
2022-07-27T12:31:18.848Z,29.50
2022-07-27T12:34:20.737Z,29.40
2022-07-27T12:37:23.235Z,29.40
2022-07-27T12:40:25.306Z,29.50
2022-07-27T12:43:27.235Z,29.60
2022-07-27T12:46:29.150Z,29.50
2022-07-27T12:49:31.256Z,29.60
2022-07-27T12:52:34.317Z,29.70
2022-07-27T12:55:36.838Z,29.50
2022-07-27T12:58:38.679Z,29.50
2022-07-27T13:01:40.546Z,29.90
2022-07-27T13:04:42.454Z,29.50
2022-07-27T13:07:45.118Z,29.70
2022-07-27T13:10:48.382Z,29.80
2022-07-27T13:13:50.196Z,29.90
2022-07-27T13:16:52.099Z,29.50
2022-07-27T13:19:53.929Z,29.50
2022-07-27T13:22:55.771Z,29.20
2022-07-27T13:25:57.724Z,29.50
2022-07-27T13:28:59.559Z,29.60
2022-07-27T13:32:01.479Z,29.20
2022-07-27T13:35:03.756Z,29.40
2022-07-27T13:38:05.688Z,29.50
2022-07-27T13:41:08.508Z,29.30
2022-07-27T13:44:30.064Z,29.10
2022-07-27T13:47:32.291Z,28.70
2022-07-27T13:50:34.144Z,28.90
2022-07-27T13:53:36.009Z,29.10
2022-07-27T13:56:37.957Z,29.00
2022-07-27T13:59:39.833Z,29.20
2022-07-27T14:02:42.197Z,29.30
2022-07-27T14:05:48.810Z,29.10
2022-07-27T14:08:53.658Z,29.50
2022-07-27T14:11:55.442Z,29.40
2022-07-27T14:14:57.266Z,29.40
2022-07-27T14:17:59.109Z,29.60
2022-07-27T14:21:02.485Z,29.60
2022-07-27T14:24:04.453Z,29.30
2022-07-27T14:27:06.704Z,29.50
2022-07-27T14:30:08.967Z,29.50
2022-07-27T14:33:11.083Z,29.50
2022-07-27T14:36:12.903Z,29.70
2022-07-27T14:39:15.239Z,29.30
2022-07-27T14:42:17.441Z,29.50
2022-07-27T14:45:19.412Z,29.70
2022-07-27T14:48:32.374Z,29.70
2022-07-27T14:51:38.903Z,29.70
2022-07-27T14:54:41.166Z,29.50
2022-07-27T14:57:43.005Z,29.70
2022-07-27T15:00:45.087Z,29.60
2022-07-27T15:03:47.047Z,29.50
2022-07-27T15:06:48.886Z,29.50
2022-07-27T15:09:50.773Z,29.50
2022-07-27T15:12:52.862Z,29.40
2022-07-27T15:15:54.786Z,29.20
2022-07-27T15:18:58.890Z,29.30
2022-07-27T15:22:00.740Z,29.50
2022-07-27T15:25:02.545Z,29.20
2022-07-27T15:28:04.526Z,29.20
2022-07-27T15:31:06.769Z,29.10
2022-07-27T15:34:08.685Z,29.10
2022-07-27T15:37:10.736Z,29.10
2022-07-27T15:40:12.868Z,29.20
2022-07-27T15:43:19.345Z,29.30
2022-07-27T15:46:27.452Z,29.00
2022-07-27T15:49:30.392Z,29.00
2022-07-27T15:52:33.059Z,28.90
2022-07-27T15:55:35.611Z,28.90
2022-07-27T15:58:37.447Z,28.70
2022-07-27T16:01:39.450Z,29.00
2022-07-27T16:04:41.369Z,28.90
2022-07-27T16:07:43.261Z,28.70
2022-07-27T16:10:45.914Z,28.70
2022-07-27T16:13:47.875Z,28.60
2022-07-27T16:16:49.786Z,28.60
2022-07-27T16:19:51.716Z,28.50
2022-07-27T16:22:53.535Z,28.50
2022-07-27T16:26:05.695Z,28.50
2022-07-27T16:29:08.077Z,28.40
2022-07-27T16:32:10.035Z,28.20
2022-07-27T16:35:12.191Z,27.90
2022-07-27T16:38:14.074Z,27.90
2022-07-27T16:41:15.884Z,27.90
2022-07-27T16:44:18.531Z,27.50
2022-07-27T16:47:20.352Z,27.60
2022-07-27T16:50:22.442Z,27.70
2022-07-27T16:53:24.409Z,27.60
2022-07-27T16:56:26.253Z,27.50
2022-07-27T16:59:30.319Z,27.40
2022-07-27T17:02:32.146Z,27.50
2022-07-27T17:05:33.950Z,27.60
2022-07-27T17:08:35.916Z,27.60
2022-07-27T17:11:37.809Z,27.50
2022-07-27T17:14:39.629Z,27.40
2022-07-27T17:17:41.701Z,27.40
2022-07-27T17:20:43.523Z,27.40
2022-07-27T17:23:45.599Z,27.20
2022-07-27T17:26:47.450Z,27.10
2022-07-27T17:29:49.375Z,26.90
2022-07-27T17:32:51.143Z,26.80
2022-07-27T17:35:52.951Z,26.70
2022-07-27T17:38:54.767Z,26.80
2022-07-27T17:41:56.573Z,26.70
2022-07-27T17:44:58.401Z,26.70
2022-07-27T17:48:00.305Z,26.50
2022-07-27T17:51:02.064Z,26.50
2022-07-27T17:54:03.830Z,26.50
2022-07-27T17:57:08.745Z,26.30
2022-07-27T18:00:10.761Z,26.40
2022-07-27T18:03:12.520Z,26.40
2022-07-27T18:06:14.369Z,26.40
2022-07-27T18:09:16.581Z,26.40
2022-07-27T18:12:18.634Z,26.50
2022-07-27T18:15:20.518Z,26.40
2022-07-27T18:18:24.997Z,26.30
2022-07-27T18:21:26.839Z,26.20
2022-07-27T18:24:28.981Z,26.10
2022-07-27T18:27:31.189Z,26.30
2022-07-27T18:30:33.203Z,26.10
2022-07-27T18:33:36.231Z,26.00
2022-07-27T18:36:38.604Z,26.00
2022-07-27T18:39:40.608Z,26.00
